Terminal Aerodrome Forecast
Issued by NWS Cleveland, OH

Home | Current Version | Previous Version | Graphics & Text | Print | Product List | Glossary Off
Versions: 1 2 3 4 5 6 7 8 9 10 11 12 13 14 15 16 17 18 19 20 21 22 23 24 25 26 27 28 29 30 31

000
FTUS41 KCLE 211700
TAFCLE
TAF
KCLE 211724Z 2118/2224 27018G28KT P6SM SCT040
     FM212100 30018G28KT P6SM SCT025 OVC035
      TEMPO 2123/2202 4SM -TSRA BKN015 OVC025CB
     FM220200 33015G25KT P6SM VCSH BKN025 OVC035
     FM220800 33012KT P6SM BKN035=

USA.gov is the U.S. government's official web portal to all federal, state and local government web resources and services.